.
WxDataArchive / Data Records for 2010-08-30
2010-08-29 August 2010 2010-08-31

Data Records for Monday, 30 August 2010

Time	Temp	Chill	HIndex	Humid	Dewpt	 Wind 	HiWind	WindDir	Rain 	Barom 
-----	----	-----	------	-----	-----	------	------	-------	-----	----- 
00:00	75.8	75.8	77.6	67	64.0	0	1	112	0.00	30.163 
00:05	75.8	75.8	77.6	67	64.0	0	0	---	0.00	30.163 
00:10	75.8	75.8	77.6	68	64.5	0	0	---	0.00	30.163 
00:15	75.8	75.8	77.6	68	64.5	0	0	---	0.00	30.165 
00:20	75.8	75.8	77.6	68	64.5	0	0	---	0.00	30.165 
00:25	75.8	75.8	77.6	68	64.5	0	0	---	0.00	30.165 
00:30	75.6	75.6	77.3	69	64.7	0	0	---	0.00	30.167 
00:35	75.4	75.4	77.1	69	64.5	0	0	---	0.00	30.167 
00:40	75.1	75.1	76.8	70	64.6	0	0	---	0.00	30.167 
00:45	74.9	74.9	74.9	71	64.8	0	0	---	0.00	30.169 
00:50	74.7	74.7	74.7	71	64.7	0	0	---	0.00	30.169 
00:55	74.4	74.4	74.4	71	64.4	0	0	---	0.00	30.169 
01:00	74.2	74.2	74.2	72	64.6	0	0	---	0.00	30.171 
01:05	74.0	74.0	74.0	73	64.8	0	1	112	0.00	30.171 
01:10	74.0	74.0	74.0	73	64.8	0	0	---	0.00	30.171 
01:15	73.9	73.9	73.9	73	64.7	0	0	---	0.00	30.175 
01:20	73.9	73.9	73.9	73	64.7	0	0	---	0.00	30.175 
01:25	73.7	73.7	73.7	73	64.5	0	0	---	0.00	30.175 
01:30	73.5	73.5	73.5	73	64.3	0	0	---	0.00	30.181 
01:35	73.3	73.3	73.3	74	64.5	0	0	---	0.00	30.181 
01:40	73.3	73.3	73.3	74	64.5	0	0	---	0.00	30.181 
01:45	73.2	73.2	73.2	75	64.8	0	0	---	0.00	30.180 
01:50	72.8	72.8	72.8	76	64.8	0	0	---	0.00	30.180 
01:55	72.7	72.7	72.7	77	65.1	0	0	---	0.00	30.180 
02:00	72.5	72.5	72.5	77	64.9	0	0	---	0.00	30.179 
02:05	72.1	72.1	72.1	77	64.5	0	0	---	0.00	30.179 
02:10	72.0	72.0	72.0	78	64.8	0	0	---	0.00	30.179 
02:15	71.8	71.8	71.8	79	64.9	0	0	---	0.00	30.182 
02:20	71.6	71.6	71.6	79	64.7	0	0	---	0.00	30.182 
02:25	71.5	71.5	71.5	79	64.6	0	0	---	0.00	30.182 
02:30	71.3	71.3	71.3	80	64.8	0	0	---	0.00	30.183 
02:35	71.1	71.1	71.1	81	65.0	0	0	---	0.00	30.183 
02:40	70.9	70.9	70.9	81	64.8	0	0	---	0.00	30.183 
02:45	70.9	70.9	70.9	81	64.8	0	0	---	0.00	30.185 
02:50	70.8	70.8	70.8	82	65.0	0	0	---	0.00	30.185 
02:55	70.6	70.6	70.6	82	64.8	0	0	---	0.00	30.185 
03:00	70.6	70.6	70.6	82	64.8	0	0	---	0.00	30.185 
03:05	70.4	70.4	70.4	82	64.6	0	0	---	0.00	30.185 
03:10	70.4	70.4	70.4	83	65.0	0	0	---	0.00	30.185 
03:15	70.3	70.3	70.3	83	64.9	0	0	---	0.00	30.188 
03:20	70.3	70.3	70.3	83	64.9	0	0	---	0.00	30.188 
03:25	70.3	70.3	70.3	83	64.9	0	0	---	0.00	30.188 
03:30	70.3	70.3	70.3	83	64.9	0	0	---	0.00	30.188 
03:35	70.4	70.4	70.4	83	65.0	0	0	---	0.00	30.188 
03:40	70.6	70.6	70.6	82	64.8	0	0	---	0.00	30.188 
03:45	70.6	70.6	70.6	82	64.8	0	0	---	0.00	30.188 
03:50	70.6	70.6	70.6	82	64.8	0	0	---	0.00	30.188 
03:55	70.6	70.6	70.6	82	64.8	0	0	---	0.00	30.188 
04:00	70.6	70.6	70.6	82	64.8	0	0	---	0.00	30.189 
04:05	70.4	70.4	70.4	83	65.0	0	0	---	0.00	30.189 
04:10	70.4	70.4	70.4	83	65.0	0	0	---	0.00	30.189 
04:15	70.3	70.3	70.3	83	64.9	0	0	---	0.00	30.191 
04:20	70.3	70.3	70.3	83	64.9	0	0	---	0.00	30.191 
04:25	70.3	70.3	70.3	84	65.2	0	0	---	0.00	30.191 
04:30	70.3	70.3	70.3	84	65.2	0	0	---	0.00	30.196 
04:35	70.4	70.4	70.4	84	65.3	0	0	---	0.00	30.196 
04:40	70.4	70.4	70.4	84	65.3	0	0	---	0.00	30.196 
04:45	70.4	70.4	70.4	84	65.3	0	0	---	0.00	30.199 
04:50	70.4	70.4	70.4	84	65.3	0	0	---	0.00	30.199 
04:55	70.4	70.4	70.4	84	65.3	0	0	---	0.00	30.199 
05:00	70.4	70.4	70.4	84	65.3	0	0	---	0.00	30.201 
05:05	70.6	70.6	70.6	84	65.5	0	0	---	0.00	30.201 
05:10	70.6	70.6	70.6	84	65.5	0	0	---	0.00	30.201 
05:15	70.6	70.6	70.6	84	65.5	0	0	---	0.00	30.201 
05:20	70.6	70.6	70.6	84	65.5	0	0	---	0.00	30.201 
05:25	70.8	70.8	70.8	84	65.7	0	0	---	0.00	30.201 
05:30	70.8	70.8	70.8	84	65.7	0	0	---	0.00	30.202 
05:35	70.8	70.8	70.8	84	65.7	0	0	---	0.00	30.202 
05:40	70.8	70.8	70.8	84	65.7	0	0	---	0.00	30.202 
05:45	70.8	70.8	70.8	84	65.7	0	0	---	0.00	30.204 
05:50	70.8	70.8	70.8	84	65.7	0	0	---	0.00	30.204 
05:55	70.8	70.8	70.8	84	65.7	0	0	---	0.00	30.204 
06:00	70.8	70.8	70.8	84	65.7	0	0	---	0.00	30.204 
06:05	70.8	70.8	70.8	84	65.7	0	0	---	0.00	30.204 
06:10	70.8	70.8	70.8	85	66.1	0	0	---	0.00	30.204 
06:15	70.9	70.9	70.9	85	66.2	0	0	---	0.00	30.207 
06:20	70.9	70.9	70.9	85	66.2	0	0	---	0.00	30.207 
06:25	70.9	70.9	70.9	85	66.2	0	0	---	0.00	30.207 
06:30	70.9	70.9	70.9	85	66.2	0	0	---	0.00	30.217 
06:35	70.9	70.9	70.9	85	66.2	0	0	---	0.00	30.217 
06:40	70.8	70.8	70.8	85	66.1	0	0	---	0.00	30.217 
06:45	70.8	70.8	70.8	85	66.1	0	0	---	0.00	30.220 
06:50	70.8	70.8	70.8	85	66.1	0	0	---	0.00	30.220 
06:55	70.6	70.6	70.6	85	65.9	0	0	---	0.00	30.220 
07:00	70.6	70.6	70.6	85	65.9	0	0	---	0.00	30.223 
07:05	70.4	70.4	70.4	85	65.7	0	0	---	0.00	30.223 
07:10	70.4	70.4	70.4	86	66.0	0	0	---	0.00	30.223 
07:15	70.3	70.3	70.3	86	65.9	0	0	---	0.00	30.238 
07:20	70.3	70.3	70.3	86	65.9	0	0	---	0.00	30.238 
07:25	70.1	70.1	70.1	86	65.7	0	0	---	0.00	30.238 
07:30	69.9	69.9	69.9	87	65.8	0	0	---	0.00	30.239 
07:35	69.9	69.9	69.9	87	65.8	0	0	---	0.00	30.239 
07:40	69.8	69.8	69.8	87	65.7	0	0	---	0.00	30.239 
07:45	69.8	69.8	69.8	88	66.1	0	0	---	0.00	30.246 
07:50	69.8	69.8	69.8	88	66.1	0	0	---	0.00	30.246 
07:55	69.8	69.8	69.8	88	66.1	0	0	---	0.00	30.246 
08:00	69.9	69.9	69.9	88	66.2	0	0	---	0.00	30.250 
08:05	70.1	70.1	70.1	88	66.4	0	0	---	0.00	30.250 
08:10	70.3	70.3	70.3	88	66.6	0	0	---	0.00	30.250 
08:15	70.4	70.4	70.4	88	66.7	0	0	---	0.00	30.257 
08:20	70.8	70.8	70.8	87	66.7	0	0	---	0.00	30.257 
08:25	71.3	71.3	71.3	86	66.9	0	0	---	0.00	30.257 
08:30	71.8	71.8	71.8	85	67.0	0	0	---	0.00	30.258 
08:35	72.1	72.1	72.1	84	67.0	0	0	---	0.00	30.258 
08:40	72.5	72.5	72.5	83	67.0	0	0	---	0.00	30.258 
08:45	72.7	72.7	72.7	83	67.2	0	0	---	0.00	30.263 
08:50	72.8	72.8	72.8	83	67.3	0	0	---	0.00	30.263 
08:55	73.0	73.0	73.0	83	67.5	0	0	---	0.00	30.263 
09:00	73.2	73.2	73.2	83	67.7	0	0	---	0.00	30.262 
09:05	73.3	73.3	73.3	82	67.5	0	0	---	0.00	30.262 
09:10	73.7	73.7	73.7	79	66.8	0	1	112	0.00	30.262 
09:15	74.4	74.4	74.4	78	67.1	0	1	112	0.00	30.263 
09:20	75.3	75.3	76.5	75	66.8	0	1	112	0.00	30.263 
09:25	76.0	76.0	77.5	73	66.7	0	2	338	0.00	30.263 
09:30	76.8	76.8	78.5	70	66.3	0	1	338	0.00	30.264 
09:35	77.6	77.6	79.5	68	66.2	0	2	338	0.00	30.264 
09:40	78.1	78.1	80.0	66	65.8	0	2	338	0.00	30.264 
09:45	78.6	78.6	80.6	66	66.3	1	2	338	0.00	30.264 
09:50	79.0	79.0	81.0	65	66.2	0	0	---	0.00	30.264 
09:55	79.0	79.0	81.0	64	65.8	1	2	338	0.00	30.264 
10:00	79.2	79.2	81.3	65	66.4	0	1	338	0.00	30.266 
10:05	79.6	79.6	81.6	63	65.9	1	2	338	0.00	30.266 
10:10	80.1	80.1	82.2	62	65.9	1	3	338	0.00	30.266 
10:15	80.5	80.5	82.5	61	65.8	1	3	338	0.00	30.268 
10:20	81.1	81.1	83.3	61	66.4	1	2	338	0.00	30.268 
10:25	81.4	81.4	83.4	59	65.7	0	1	338	0.00	30.268 
10:30	82.0	82.0	84.1	58	65.7	0	2	338	0.00	30.266 
10:35	82.6	82.6	84.7	57	65.8	0	1	338	0.00	30.266 
10:40	83.2	83.2	85.3	56	65.8	0	1	338	0.00	30.266 
10:45	83.6	83.6	85.7	55	65.7	1	2	338	0.00	30.265 
10:50	84.0	84.0	86.3	55	66.1	1	2	315	0.00	30.265 
10:55	84.3	84.3	86.2	53	65.3	0	4	315	0.00	30.265 
11:00	84.3	84.3	86.2	53	65.3	1	2	270	0.00	30.265 
11:05	84.9	84.9	87.1	53	65.8	0	2	270	0.00	30.265 
11:10	85.5	85.5	87.4	51	65.3	0	1	270	0.00	30.265 
11:15	86.1	86.1	88.3	51	65.8	0	2	270	0.00	30.263 
11:20	86.3	86.3	88.3	50	65.4	1	2	270	0.00	30.263 
11:25	86.5	86.5	88.9	51	66.2	0	1	270	0.00	30.263 
11:30	87.0	87.0	89.4	50	66.1	0	2	270	0.00	30.259 
11:35	87.2	87.2	89.1	48	65.1	1	3	270	0.00	30.259 
11:40	87.2	87.2	89.1	48	65.1	1	3	270	0.00	30.259 
11:45	87.4	87.4	89.4	48	65.3	1	3	270	0.00	30.254 
11:50	88.2	88.2	90.3	47	65.4	0	3	270	0.00	30.254 
11:55	88.6	88.6	90.6	46	65.1	1	4	292	0.00	30.254 
12:00	88.6	88.6	91.0	47	65.7	1	3	292	0.00	30.250 
12:05	88.6	88.6	91.3	48	66.4	0	2	315	0.00	30.250 
12:10	89.0	89.0	91.6	47	66.1	0	2	315	0.00	30.250 
12:15	89.3	89.3	91.0	44	64.5	1	4	270	0.00	30.251 
12:20	89.5	89.5	91.7	45	65.3	1	3	270	0.00	30.251 
12:25	89.7	89.7	91.6	44	64.8	1	3	112	0.00	30.251 
12:30	90.1	90.1	92.7	45	65.9	1	5	112	0.00	30.246 
12:35	90.3	90.3	92.2	43	64.7	1	4	112	0.00	30.246 
12:40	90.3	90.3	91.8	42	64.0	1	2	112	0.00	30.246 
12:45	90.3	90.3	92.2	43	64.7	0	2	112	0.00	30.242 
12:50	90.5	90.5	92.5	43	64.9	1	4	270	0.00	30.242 
12:55	90.3	90.3	91.8	42	64.0	1	3	90	0.00	30.242 
13:00	90.3	90.3	92.6	44	65.4	1	3	90	0.00	30.236 
13:05	91.0	91.0	93.0	42	64.7	1	3	90	0.00	30.236 
13:10	90.5	90.5	92.2	42	64.2	1	3	248	0.00	30.236 
13:15	89.9	89.9	91.2	42	63.7	0	2	248	0.00	30.234 
13:20	89.5	89.5	90.3	41	62.6	1	4	248	0.00	30.234 
13:25	89.9	89.9	91.2	42	63.7	1	2	248	0.00	30.234 
13:30	90.5	90.5	91.4	40	62.8	1	4	112	0.00	30.232 
13:35	90.3	90.3	91.8	42	64.0	1	3	112	0.00	30.232 
13:40	89.5	89.5	91.3	44	64.7	1	3	112	0.00	30.232 
13:45	89.0	89.0	90.5	44	64.2	1	3	248	0.00	30.225 
13:50	89.3	89.3	91.4	45	65.1	0	1	248	0.00	30.225 
13:55	89.7	89.7	91.6	44	64.8	0	2	248	0.00	30.225 
14:00	90.1	90.1	91.9	43	64.5	1	4	292	0.00	30.221 
14:05	90.7	90.7	91.7	40	63.0	1	4	22	0.00	30.221 
14:10	91.2	91.2	93.3	42	64.9	2	4	270	0.00	30.221 
14:15	91.4	91.4	93.6	42	65.0	1	3	90	0.00	30.220 
14:20	91.6	91.6	93.1	40	63.8	1	4	270	0.00	30.220 
14:25	91.4	91.4	92.8	40	63.6	2	4	270	0.00	30.220 
14:30	91.2	91.2	92.5	40	63.5	2	5	270	0.00	30.220 
14:35	91.0	91.0	93.0	42	64.7	2	5	270	0.00	30.220 
14:40	91.0	91.0	92.2	40	63.3	1	6	270	0.00	30.220 
14:45	91.2	91.2	92.9	41	64.2	1	5	248	0.00	30.216 
14:50	91.2	91.2	93.3	42	64.9	2	5	270	0.00	30.216 
14:55	91.0	91.0	92.6	41	64.0	1	4	292	0.00	30.216 
15:00	91.4	91.4	93.2	41	64.3	1	3	45	0.00	30.208 
15:05	91.4	91.4	92.8	40	63.6	1	2	45	0.00	30.208 
15:10	92.1	92.1	94.8	42	65.7	1	3	270	0.00	30.208 
15:15	92.1	92.1	93.5	39	63.5	2	4	270	0.00	30.199 
15:20	91.4	91.4	92.4	39	62.9	1	4	270	0.00	30.199 
15:25	90.5	90.5	91.8	41	63.5	0	2	270	0.00	30.199 
15:30	90.7	90.7	92.1	41	63.7	1	3	68	0.00	30.192 
15:35	91.0	91.0	92.6	41	64.0	1	3	68	0.00	30.192 
15:40	90.5	90.5	91.8	41	63.5	1	2	248	0.00	30.192 
15:45	90.5	90.5	92.2	42	64.2	2	5	90	0.00	30.190 
15:50	90.3	90.3	91.5	41	63.4	1	4	112	0.00	30.190 
15:55	89.7	89.7	90.9	42	63.5	1	5	90	0.00	30.190 
16:00	89.5	89.5	91.0	43	64.0	0	3	90	0.00	30.189 
16:05	89.9	89.9	91.9	44	65.0	1	3	90	0.00	30.189 
16:10	90.3	90.3	91.1	40	62.7	1	5	22	0.00	30.189 
16:15	91.0	91.0	92.2	40	63.3	1	4	315	0.00	30.186 
16:20	91.0	91.0	92.2	40	63.3	1	6	270	0.00	30.186 
16:25	90.3	90.3	91.1	40	62.7	1	3	90	0.00	30.186 
16:30	90.1	90.1	91.2	41	63.2	1	4	90	0.00	30.178 
16:35	90.3	90.3	91.5	41	63.4	1	5	90	0.00	30.178 
16:40	90.3	90.3	91.5	41	63.4	1	5	270	0.00	30.178 
16:45	90.3	90.3	91.1	40	62.7	1	4	90	0.00	30.181 
16:50	89.9	89.9	90.9	41	63.0	1	4	248	0.00	30.181 
16:55	89.3	89.3	90.3	42	63.2	1	3	248	0.00	30.181 
17:00	89.0	89.0	90.2	43	63.6	0	2	248	0.00	30.178 
17:05	88.8	88.8	89.9	43	63.4	1	5	248	0.00	30.178 
17:10	88.6	88.6	89.3	42	62.5	1	4	270	0.00	30.178 
17:15	88.4	88.4	89.0	42	62.3	1	6	292	0.00	30.178 
17:20	88.2	88.2	89.0	43	62.8	1	6	270	0.00	30.178 
17:25	88.2	88.2	89.0	43	62.8	1	3	270	0.00	30.178 
17:30	88.2	88.2	89.0	43	62.8	1	3	270	0.00	30.177 
17:35	88.0	88.0	88.7	43	62.7	1	4	270	0.00	30.177 
17:40	88.0	88.0	89.4	45	64.0	1	4	270	0.00	30.177 
17:45	87.8	87.8	89.4	46	64.4	1	4	248	0.00	30.175 
17:50	87.4	87.4	88.8	46	64.0	1	4	270	0.00	30.175 
17:55	87.2	87.2	88.5	46	63.9	1	3	270	0.00	30.175 
18:00	87.0	87.0	88.5	47	64.3	0	2	270	0.00	30.175 
18:05	86.7	86.7	88.1	47	64.0	0	3	292	0.00	30.175 
18:10	86.5	86.5	88.1	48	64.4	1	3	292	0.00	30.175 
18:15	86.3	86.3	87.5	47	63.7	1	3	292	0.00	30.174 
18:20	86.3	86.3	87.8	48	64.3	0	2	292	0.00	30.174 
18:25	86.3	86.3	87.8	48	64.3	0	2	292	0.00	30.174 
18:30	86.3	86.3	88.0	49	64.9	0	1	270	0.00	30.172 
18:35	86.3	86.3	87.8	48	64.3	0	3	270	0.00	30.172 
18:40	86.5	86.5	87.5	46	63.2	0	2	270	0.00	30.172 
18:45	86.7	86.7	87.8	46	63.4	1	3	270	0.00	30.169 
18:50	86.5	86.5	87.2	45	62.6	1	4	22	0.00	30.169 
18:55	86.3	86.3	87.2	46	63.0	0	2	248	0.00	30.169 
19:00	86.1	86.1	87.2	47	63.5	0	3	248	0.00	30.168 
19:05	85.9	85.9	87.2	48	63.9	0	2	315	0.00	30.168 
19:10	85.7	85.7	86.9	48	63.7	1	3	315	0.00	30.168 
19:15	85.3	85.3	86.6	49	63.9	1	3	292	0.00	30.167 
19:20	85.3	85.3	86.6	49	63.9	0	2	270	0.00	30.167 
19:25	85.1	85.1	86.4	49	63.8	0	1	270	0.00	30.167 
19:30	84.9	84.9	86.3	50	64.2	0	1	270	0.00	30.166 
19:35	84.7	84.7	86.0	50	64.0	0	1	270	0.00	30.166 
19:40	84.5	84.5	86.0	51	64.4	0	1	270	0.00	30.166 
19:45	84.3	84.3	85.7	51	64.2	0	1	270	0.00	30.164 
19:50	84.1	84.1	85.7	52	64.5	0	1	270	0.00	30.164 
19:55	84.1	84.1	85.9	53	65.1	0	1	270	0.00	30.164 
20:00	84.0	84.0	85.8	53	65.0	0	1	270	0.00	30.163 
20:05	83.8	83.8	85.7	54	65.3	0	1	270	0.00	30.163 
20:10	83.4	83.4	85.2	54	65.0	0	1	270	0.00	30.163 
20:15	83.2	83.2	84.9	54	64.8	0	3	270	0.00	30.161 
20:20	83.0	83.0	84.7	54	64.6	0	1	270	0.00	30.161 
20:25	82.8	82.8	84.6	55	65.0	0	1	270	0.00	30.161 
20:30	82.6	82.6	84.5	56	65.3	0	0	---	0.00	30.161 
20:35	82.2	82.2	84.0	56	64.9	0	0	---	0.00	30.161 
20:40	82.0	82.0	83.9	57	65.2	0	0	---	0.00	30.161 
20:45	81.6	81.6	83.4	57	64.9	0	1	270	0.00	30.162 
20:50	81.4	81.4	83.3	58	65.2	0	0	---	0.00	30.162 
20:55	81.2	81.2	83.0	58	65.0	0	0	---	0.00	30.162 
21:00	80.9	80.9	82.7	58	64.7	0	0	---	0.00	30.162 
21:05	80.7	80.7	82.5	59	65.0	0	0	---	0.00	30.162 
21:10	80.5	80.5	82.3	59	64.8	0	0	---	0.00	30.162 
21:15	80.1	80.1	81.9	60	64.9	0	0	---	0.00	30.159 
21:20	79.8	79.8	81.6	60	64.7	0	0	---	0.00	30.159 
21:25	79.6	79.6	81.4	61	64.9	0	0	---	0.00	30.159 
21:30	79.2	79.2	81.0	61	64.6	0	0	---	0.00	30.159 
21:35	78.8	78.8	80.6	62	64.7	0	0	---	0.00	30.159 
21:40	78.6	78.6	80.4	62	64.5	0	0	---	0.00	30.159 
21:45	78.5	78.5	80.3	63	64.8	0	0	---	0.00	30.161 
21:50	78.1	78.1	79.9	63	64.5	0	0	---	0.00	30.161 
21:55	77.9	77.9	79.7	64	64.7	0	0	---	0.00	30.161 
22:00	77.7	77.7	79.5	64	64.5	0	0	---	0.00	30.161 
22:05	77.4	77.4	79.2	65	64.7	0	0	---	0.00	30.161 
22:10	77.2	77.2	79.0	65	64.5	0	0	---	0.00	30.161 
22:15	77.0	77.0	78.8	65	64.3	0	0	---	0.00	30.156 
22:20	76.8	76.8	78.6	65	64.1	0	0	---	0.00	30.156 
22:25	76.8	76.8	78.6	66	64.6	0	0	---	0.00	30.156 
22:30	76.7	76.7	78.5	66	64.5	0	0	---	0.00	30.154 
22:35	76.7	76.7	78.5	66	64.5	0	0	---	0.00	30.154 
22:40	76.5	76.5	78.3	66	64.3	0	0	---	0.00	30.154 
22:45	76.5	76.5	78.3	66	64.3	0	0	---	0.00	30.153 
22:50	76.5	76.5	78.3	66	64.3	0	0	---	0.00	30.153 
22:55	76.3	76.3	78.1	66	64.1	0	0	---	0.00	30.153 
23:00	76.3	76.3	78.1	66	64.1	0	0	---	0.00	30.148 
23:05	76.1	76.1	77.9	67	64.3	0	0	---	0.00	30.148 
23:10	76.0	76.0	77.8	67	64.2	0	0	---	0.00	30.148 
23:15	75.8	75.8	77.6	68	64.5	0	0	---	0.00	30.142 
23:20	75.4	75.4	77.1	69	64.5	0	0	---	0.00	30.142 
23:25	75.3	75.3	77.0	69	64.4	0	0	---	0.00	30.142 
23:30	75.1	75.1	76.9	69	64.2	0	0	---	0.00	30.140 
23:35	74.9	74.9	74.9	70	64.4	0	0	---	0.00	30.140 
23:40	74.7	74.7	74.7	70	64.2	0	0	---	0.00	30.140 
23:45	74.4	74.4	74.4	71	64.4	0	0	---	0.00	30.138 
23:50	74.2	74.2	74.2	72	64.6	0	0	---	0.00	30.138 
23:55	73.9	73.9	73.9	73	64.7	0	0	---	0.00	30.138 

CoCoRaHS
IN-AL-39
A2 Web Hosting
Creative Commons License
GoDaddy
search engine by freefind advanced

loaded 2018-11-15 17:47:09 • last modified 2010-11-18 10:43:29
Privacy PolicyDisclaimer
• wx.awcolley.com is powered by PmWiki v.2002016 •
• all content (unless otherwise noted) © 2018 A W Colley